sensor_id;sensor_type;location;lat;lon;timestamp;pressure;altitude;pressure_sealevel;temperature;humidity
17950;BME280;9100;48.700;9.316;2023-01-28T00:00:34;98294.3;;;1.02;100
17950;BME280;9100;48.700;9.316;2023-01-28T00:00:57;98295.9;;;1.03;100
17950;BME280;9100;48.700;9.316;2023-01-28T00:01:57;98295.1;;;1.02;100
17950;BME280;9100;48.700;9.316;2023-01-28T00:02:59;98295.9;;;1.03;100
17950;BME280;9100;48.700;9.316;2023-01-28T00:03:57;98292.5;;;1.04;100
17950;BME280;9100;48.700;9.316;2023-01-28T00:04:57;98294.3;;;1.02;100
17950;BME280;9100;48.700;9.316;2023-01-28T00:05:34;98289.4;;;1;100
17950;BME280;9100;48.700;9.316;2023-01-28T00:06:00;98291.8;;;1.02;100
17950;BME280;9100;48.700;9.316;2023-01-28T00:06:57;98288.4;;;1.03;100
17950;BME280;9100;48.700;9.316;2023-01-28T00:07:57;98297.5;;;1.04;100
17950;BME280;9100;48.700;9.316;2023-01-28T00:08:57;98295.9;;;1.03;100
17950;BME280;9100;48.700;9.316;2023-01-28T00:09:57;98288.5;;;1.01;100
17950;BME280;9100;48.700;9.316;2023-01-28T00:10:35;98286.8;;;1.02;100
17950;BME280;9100;48.700;9.316;2023-01-28T00:10:58;98289.3;;;1.02;100
17950;BME280;9100;48.700;9.316;2023-01-28T00:11:57;98289.3;;;1.02;100
17950;BME280;9100;48.700;9.316;2023-01-28T00:12:56;98294.3;;;1.02;100
17950;BME280;9100;48.700;9.316;2023-01-28T00:13:56;98284.1;;;1.03;100
17950;BME280;9100;48.700;9.316;2023-01-28T00:14:57;98286.7;;;1.03;100
17950;BME280;9100;48.700;9.316;2023-01-28T00:15:35;98287.5;;;1.04;100
17950;BME280;9100;48.700;9.316;2023-01-28T00:15:57;98291.7;;;1.03;100
17950;BME280;9100;48.700;9.316;2023-01-28T00:16:58;98288.4;;;1.03;100
17950;BME280;9100;48.700;9.316;2023-01-28T00:17:57;98289.09999999999;;;1.05;100
17950;BME280;9100;48.700;9.316;2023-01-28T00:18:57;98294.1;;;1.05;100
17950;BME280;9100;48.700;9.316;2023-01-28T00:19:57;98283.3;;;1.04;100
17950;BME280;9100;48.700;9.316;2023-01-28T00:20:35;98290.9;;;1.03;100
17950;BME280;9100;48.700;9.316;2023-01-28T00:20:58;98280.8;;;1.03;100
17950;BME280;9100;48.700;9.316;2023-01-28T00:21:57;98281.7;;;1.02;100
17950;BME280;9100;48.700;9.316;2023-01-28T00:22:57;98285.90000000001;;;1.03;100
17950;BME280;9100;48.700;9.316;2023-01-28T00:23:57;98285.90000000001;;;1.03;100
17950;BME280;9100;48.700;9.316;2023-01-28T00:24:56;98286.7;;;1.03;100
17950;BME280;9100;48.700;9.316;2023-01-28T00:25:34;98286.7;;;1.03;100
17950;BME280;9100;48.700;9.316;2023-01-28T00:25:57;98275.7;;;1.04;100
17950;BME280;9100;48.700;9.316;2023-01-28T00:26:57;98278.9;;;1.06;100
17950;BME280;9100;48.700;9.316;2023-01-28T00:27:58;98278.8;;;1.08;100
17950;BME280;9100;48.700;9.316;2023-01-28T00:28:57;98281.2;;;1.09;100
17950;BME280;9100;48.700;9.316;2023-01-28T00:29:57;98273.8;;;1.08;100
17950;BME280;9100;48.700;9.316;2023-01-28T00:30:34;98277.9;;;1.09;100
17950;BME280;9100;48.700;9.316;2023-01-28T00:30:57;98282.8;;;1.1;100
17950;BME280;9100;48.700;9.316;2023-01-28T00:31:57;98278.59999999999;;;1.11;100
17950;BME280;9100;48.700;9.316;2023-01-28T00:32:57;98281.1;;;1.11;100
17950;BME280;9100;48.700;9.316;2023-01-28T00:33:57;98272.7;;;1.1;100
17950;BME280;9100;48.700;9.316;2023-01-28T00:34:57;98276.09999999999;;;1.11;100
17950;BME280;9100;48.700;9.316;2023-01-28T00:35:34;98277;;;1.1;100
17950;BME280;9100;48.700;9.316;2023-01-28T00:35:58;98274.5;;;1.1;100
17950;BME280;9100;48.700;9.316;2023-01-28T00:36:57;98275.2;;;1.12;100
17950;BME280;9100;48.700;9.316;2023-01-28T00:37:56;98276.8;;;1.13;100
17950;BME280;9100;48.700;9.316;2023-01-28T00:38:57;98271.7;;;1.13;100
17950;BME280;9100;48.700;9.316;2023-01-28T00:39:56;98280;;;1.15;100
17950;BME280;9100;48.700;9.316;2023-01-28T00:40:35;98274.2;;;1.14;100
17950;BME280;9100;48.700;9.316;2023-01-28T00:41:05;98279.1;;;1.16;100
17950;BME280;9100;48.700;9.316;2023-01-28T00:41:57;98284.79999999999;;;1.18;100
17950;BME280;9100;48.700;9.316;2023-01-28T00:42:57;98269.7;;;1.18;100
17950;BME280;9100;48.700;9.316;2023-01-28T00:43:57;98278.8;;;1.2;100
17950;BME280;9100;48.700;9.316;2023-01-28T00:44:57;98272;;;1.21;100
17950;BME280;9100;48.700;9.316;2023-01-28T00:45:34;98274.5;;;1.21;100
17950;BME280;9100;48.700;9.316;2023-01-28T00:45:57;98272.90000000001;;;1.2;100
17950;BME280;9100;48.700;9.316;2023-01-28T00:46:57;98276.09999999999;;;1.22;100
17950;BME280;9100;48.700;9.316;2023-01-28T00:47:57;98272.7;;;1.23;100
17950;BME280;9100;48.700;9.316;2023-01-28T00:48:57;98267.7;;;1.23;100
17950;BME280;9100;48.700;9.316;2023-01-28T00:49:57;98270.2;;;1.23;100
17950;BME280;9100;48.700;9.316;2023-01-28T00:50:35;98276.09999999999;;;1.22;100
17950;BME280;9100;48.700;9.316;2023-01-28T00:50:57;98276.09999999999;;;1.22;100
17950;BME280;9100;48.700;9.316;2023-01-28T00:51:57;98267.7;;;1.23;100
17950;BME280;9100;48.700;9.316;2023-01-28T00:52:57;98271.1;;;1.22;100
17950;BME280;9100;48.700;9.316;2023-01-28T00:53:57;98280.4;;;1.21;100
17950;BME280;9100;48.700;9.316;2023-01-28T00:54:57;98270.3;;;1.21;100
17950;BME280;9100;48.700;9.316;2023-01-28T00:55:34;98269.5;;;1.21;100
17950;BME280;9100;48.700;9.316;2023-01-28T00:55:57;98280.4;;;1.21;100
17950;BME280;9100;48.700;9.316;2023-01-28T00:56:57;98274.5;;;1.21;100
17950;BME280;9100;48.700;9.316;2023-01-28T00:57:57;98276.09999999999;;;1.22;100
17950;BME280;9100;48.700;9.316;2023-01-28T00:58:57;98276.09999999999;;;1.22;100
17950;BME280;9100;48.700;9.316;2023-01-28T00:59:57;98272.7;;;1.23;100
17950;BME280;9100;48.700;9.316;2023-01-28T01:00:35;98271.1;;;1.22;100
17950;BME280;9100;48.700;9.316;2023-01-28T01:01:04;98269.5;;;1.21;100
17950;BME280;9100;48.700;9.316;2023-01-28T01:01:57;98271.1;;;1.22;100
17950;BME280;9100;48.700;9.316;2023-01-28T01:02:57;98267.7;;;1.23;100
17950;BME280;9100;48.700;9.316;2023-01-28T01:03:57;98274.3;;;1.24;100
17950;BME280;9100;48.700;9.316;2023-01-28T01:04:57;98277.8;;;1.23;100
17950;BME280;9100;48.700;9.316;2023-01-28T01:05:34;98287.8;;;1.23;100
17950;BME280;9100;48.700;9.316;2023-01-28T01:05:57;98279.4;;;1.24;100
17950;BME280;9100;48.700;9.316;2023-01-28T01:06:57;98275.09999999999;;;1.24;100
17950;BME280;9100;48.700;9.316;2023-01-28T01:07:57;98278.5;;;1.23;100
17950;BME280;9100;48.700;9.316;2023-01-28T01:08:57;98282.8;;;1.23;100
17950;BME280;9100;48.700;9.316;2023-01-28T01:09:57;98286.2;;;1.22;100
17950;BME280;9100;48.700;9.316;2023-01-28T01:10:34;98281.3;;;1.2;100
17950;BME280;9100;48.700;9.316;2023-01-28T01:10:58;98287.09999999999;;;1.21;100
17950;BME280;9100;48.700;9.316;2023-01-28T01:11:58;98278.8;;;1.2;100
17950;BME280;9100;48.700;9.316;2023-01-28T01:12:58;98284.6;;;1.21;100
17950;BME280;9100;48.700;9.316;2023-01-28T01:13:58;98283;;;1.2;100
17950;BME280;9100;48.700;9.316;2023-01-28T01:14:57;98283.90000000001;;;1.19;100
17950;BME280;9100;48.700;9.316;2023-01-28T01:15:34;98283.2;;;1.17;100
17950;BME280;9100;48.700;9.316;2023-01-28T01:16:00;98281.5;;;1.17;100
17950;BME280;9100;48.700;9.316;2023-01-28T01:16:57;98279.8;;;1.18;100
17950;BME280;9100;48.700;9.316;2023-01-28T01:17:57;98291.5;;;1.19;100
17950;BME280;9100;48.700;9.316;2023-01-28T01:18:58;98279.8;;;1.18;100
17950;BME280;9100;48.700;9.316;2023-01-28T01:19:57;98287.3;;;1.18;100
17950;BME280;9100;48.700;9.316;2023-01-28T01:20:35;98281.6;;;1.16;100
17950;BME280;9100;48.700;9.316;2023-01-28T01:20:57;98284.79999999999;;;1.18;100
17950;BME280;9100;48.700;9.316;2023-01-28T01:21:57;98278.2;;;1.17;100
17950;BME280;9100;48.700;9.316;2023-01-28T01:22:56;98280.6;;;1.18;100
17950;BME280;9100;48.700;9.316;2023-01-28T01:23:56;98279;;;1.17;100
17950;BME280;9100;48.700;9.316;2023-01-28T01:24:56;98287.3;;;1.18;100
17950;BME280;9100;48.700;9.316;2023-01-28T01:25:35;98278.2;;;1.17;100
17950;BME280;9100;48.700;9.316;2023-01-28T01:25:57;98278.2;;;1.17;100
17950;BME280;9100;48.700;9.316;2023-01-28T01:26:57;98281.5;;;1.17;100
17950;BME280;9100;48.700;9.316;2023-01-28T01:27:56;98279;;;1.17;100
17950;BME280;9100;48.700;9.316;2023-01-28T01:28:57;98280.6;;;1.18;100
17950;BME280;9100;48.700;9.316;2023-01-28T01:29:57;98274.7;;;1.18;100
17950;BME280;9100;48.700;9.316;2023-01-28T01:30:34;98284.79999999999;;;1.18;100
17950;BME280;9100;48.700;9.316;2023-01-28T01:30:58;98284.79999999999;;;1.18;100
17950;BME280;9100;48.700;9.316;2023-01-28T01:31:57;98284.79999999999;;;1.18;100
17950;BME280;9100;48.700;9.316;2023-01-28T01:32:57;98283;;;1.2;100
17950;BME280;9100;48.700;9.316;2023-01-28T01:33:58;98252.59999999999;;;0.97;100
17950;BME280;9100;48.700;9.316;2023-01-28T01:34:57;98283.90000000001;;;1.19;100
17950;BME280;9100;48.700;9.316;2023-01-28T01:35:34;98280.7;;;1.17;100
17950;BME280;9100;48.700;9.316;2023-01-28T01:35:57;98281.6;;;1.16;100
17950;BME280;9100;48.700;9.316;2023-01-28T01:36:57;98286.6;;;1.16;100
17950;BME280;9100;48.700;9.316;2023-01-28T01:37:57;98284.90000000001;;;1.16;100
17950;BME280;9100;48.700;9.316;2023-01-28T01:38:57;98285.7;;;1.17;100
17950;BME280;9100;48.700;9.316;2023-01-28T01:39:57;98286.6;;;1.16;100
17950;BME280;9100;48.700;9.316;2023-01-28T01:40:34;98289.09999999999;;;1.16;100
17950;BME280;9100;48.700;9.316;2023-01-28T01:40:58;98281.6;;;1.16;100
17950;BME280;9100;48.700;9.316;2023-01-28T01:41:57;98284.79999999999;;;1.18;100
17950;BME280;9100;48.700;9.316;2023-01-28T01:42:57;98282.3;;;1.18;100
17950;BME280;9100;48.700;9.316;2023-01-28T01:43:58;98284.79999999999;;;1.18;100
17950;BME280;9100;48.700;9.316;2023-01-28T01:44:58;98287.40000000001;;;1.16;100
17950;BME280;9100;48.700;9.316;2023-01-28T01:45:35;98286.5;;;1.17;100
17950;BME280;9100;48.700;9.316;2023-01-28T01:45:58;98280.7;;;1.17;100
17950;BME280;9100;48.700;9.316;2023-01-28T01:46:57;98289.70000000001;;;1.19;100
17950;BME280;9100;48.700;9.316;2023-01-28T01:47:58;98293.1;;;1.2;100
17950;BME280;9100;48.700;9.316;2023-01-28T01:48:57;98290.5;;;1.2;100
17950;BME280;9100;48.700;9.316;2023-01-28T01:49:57;98288;;;1.2;100
17950;BME280;9100;48.700;9.316;2023-01-28T01:50:35;98288;;;1.2;100
17950;BME280;9100;48.700;9.316;2023-01-28T01:50:59;98291.5;;;1.19;100
17950;BME280;9100;48.700;9.316;2023-01-28T01:51:57;98292.2;;;1.21;100
17950;BME280;9100;48.700;9.316;2023-01-28T01:52:59;98290.5;;;1.2;100
17950;BME280;9100;48.700;9.316;2023-01-28T01:53:58;98290.5;;;1.2;100
17950;BME280;9100;48.700;9.316;2023-01-28T01:54:57;98288.09999999999;;;1.18;100
17950;BME280;9100;48.700;9.316;2023-01-28T01:55:34;98287.2;;;1.19;100
17950;BME280;9100;48.700;9.316;2023-01-28T01:55:58;98291.5;;;1.19;100
17950;BME280;9100;48.700;9.316;2023-01-28T01:56:58;98291.5;;;1.19;100
17950;BME280;9100;48.700;9.316;2023-01-28T01:57:59;98287.40000000001;;;1.16;100
17950;BME280;9100;48.700;9.316;2023-01-28T01:58:58;98293.2;;;1.18;100
17950;BME280;9100;48.700;9.316;2023-01-28T01:59:57;98300.09999999999;;;1.15;100
17950;BME280;9100;48.700;9.316;2023-01-28T02:00:34;98301.70000000001;;;1.16;100
17950;BME280;9100;48.700;9.316;2023-01-28T02:00:57;98295.1;;;1.15;100
17950;BME280;9100;48.700;9.316;2023-01-28T02:01:58;98301;;;1.15;100
17950;BME280;9100;48.700;9.316;2023-01-28T02:02:57;98305.2;;;1.15;100
17950;BME280;9100;48.700;9.316;2023-01-28T02:04:00;98296.90000000001;;;1.13;100
17950;BME280;9100;48.700;9.316;2023-01-28T02:04:57;98296.90000000001;;;1.13;100
17950;BME280;9100;48.700;9.316;2023-01-28T02:05:34;98295.3;;;1.12;100
17950;BME280;9100;48.700;9.316;2023-01-28T02:05:57;98301.09999999999;;;1.12;100
17950;BME280;9100;48.700;9.316;2023-01-28T02:06:57;98294.4;;;1.13;100
17950;BME280;9100;48.700;9.316;2023-01-28T02:07:57;98301.09999999999;;;1.12;100
17950;BME280;9100;48.700;9.316;2023-01-28T02:08:57;98301.09999999999;;;1.12;100
17950;BME280;9100;48.700;9.316;2023-01-28T02:09:58;98294.5;;;1.11;100
17950;BME280;9100;48.700;9.316;2023-01-28T02:10:34;98301.3;;;1.09;100
17950;BME280;9100;48.700;9.316;2023-01-28T02:10:57;98305.4;;;1.12;100
17950;BME280;9100;48.700;9.316;2023-01-28T02:11:57;98301.3;;;1.11;100
17950;BME280;9100;48.700;9.316;2023-01-28T02:12:57;98291.2;;;1.11;100
17950;BME280;9100;48.700;9.316;2023-01-28T02:13:59;98296.1;;;1.12;100
17950;BME280;9100;48.700;9.316;2023-01-28T02:14:58;98298.7;;;1.11;100
17950;BME280;9100;48.700;9.316;2023-01-28T02:15:35;98302.20000000001;;;1.1;100
17950;BME280;9100;48.700;9.316;2023-01-28T02:15:57;98297.90000000001;;;1.1;100
17950;BME280;9100;48.700;9.316;2023-01-28T02:16:57;98308;;;1.1;100
17950;BME280;9100;48.700;9.316;2023-01-28T02:17:57;98305.6;;;1.09;100
17950;BME280;9100;48.700;9.316;2023-01-28T02:18:57;98300.5;;;1.09;100
17950;BME280;9100;48.700;9.316;2023-01-28T02:19:57;98300.5;;;1.09;100
17950;BME280;9100;48.700;9.316;2023-01-28T02:20:37;98307.3;;;1.08;100
17950;BME280;9100;48.700;9.316;2023-01-28T02:21:02;98301.5;;;1.08;100
17950;BME280;9100;48.700;9.316;2023-01-28T02:22:00;98304.9;;;1.07;100
17950;BME280;9100;48.700;9.316;2023-01-28T02:23:04;98301.5;;;1.08;100
17950;BME280;9100;48.700;9.316;2023-01-28T02:24:01;98306.6;;;1.06;100
17950;BME280;9100;48.700;9.316;2023-01-28T02:25:05;98299.90000000001;;;1.05;100
17950;BME280;9100;48.700;9.316;2023-01-28T02:26:04;98307.4;;;1.07;100
17950;BME280;9100;48.700;9.316;2023-01-28T02:27:02;98302.3;;;1.08;100
17950;BME280;9100;48.700;9.316;2023-01-28T02:28:00;98303.09999999999;;;1.09;100
17950;BME280;9100;48.700;9.316;2023-01-28T02:28:58;98304;;;1.08;100
17950;BME280;9100;48.700;9.316;2023-01-28T02:29:57;98304.7;;;1.1;100
17950;BME280;9100;48.700;9.316;2023-01-28T02:30:35;98300.5;;;1.09;100
17950;BME280;9100;48.700;9.316;2023-01-28T02:30:57;98310.6;;;1.09;100
17950;BME280;9100;48.700;9.316;2023-01-28T02:32:00;98309.7;;;1.1;100
17950;BME280;9100;48.700;9.316;2023-01-28T02:32:58;98303.09999999999;;;1.09;100
17950;BME280;9100;48.700;9.316;2023-01-28T02:33:58;98299.7;;;1.08;100
17950;BME280;9100;48.700;9.316;2023-01-28T02:34:58;98303.09999999999;;;1.09;100
17950;BME280;9100;48.700;9.316;2023-01-28T02:35:34;98304;;;1.08;100
17950;BME280;9100;48.700;9.316;2023-01-28T02:35:58;98301.5;;;1.08;100
17950;BME280;9100;48.700;9.316;2023-01-28T02:36:58;98303.09999999999;;;1.09;100
17950;BME280;9100;48.700;9.316;2023-01-28T02:37:59;98304.6;;;1.11;100
17950;BME280;9100;48.700;9.316;2023-01-28T02:38:57;98297.1;;;1.1;100
17950;BME280;9100;48.700;9.316;2023-01-28T02:39:58;98297.1;;;1.1;100
17950;BME280;9100;48.700;9.316;2023-01-28T02:40:35;98297.2;;;1.08;100
17950;BME280;9100;48.700;9.316;2023-01-28T02:41:00;98301.3;;;1.09;100
17950;BME280;9100;48.700;9.316;2023-01-28T02:42:02;98300.5;;;1.09;100
17950;BME280;9100;48.700;9.316;2023-01-28T02:42:57;98301.3;;;1.09;100
17950;BME280;9100;48.700;9.316;2023-01-28T02:44:00;98307.2;;;1.1;100
17950;BME280;9100;48.700;9.316;2023-01-28T02:44:58;98304.7;;;1.1;100
17950;BME280;9100;48.700;9.316;2023-01-28T02:45:34;98304;;;1.08;100
17950;BME280;9100;48.700;9.316;2023-01-28T02:45:57;98304.8;;;1.08;100
17950;BME280;9100;48.700;9.316;2023-01-28T02:46:57;98299.59999999999;;;1.1;100
17950;BME280;9100;48.700;9.316;2023-01-28T02:47:57;98304.7;;;1.1;100
17950;BME280;9100;48.700;9.316;2023-01-28T02:48:59;98305.6;;;1.09;100
17950;BME280;9100;48.700;9.316;2023-01-28T02:49:58;98288.9;;;1.08;100
17950;BME280;9100;48.700;9.316;2023-01-28T02:50:37;98299;;;1.08;100
17950;BME280;9100;48.700;9.316;2023-01-28T02:50:58;98195.9;;;0.43;100
17950;BME280;9100;48.700;9.316;2023-01-28T02:52:02;98300.5;;;1.09;100
17950;BME280;9100;48.700;9.316;2023-01-28T02:53:00;98301.5;;;1.08;100
17950;BME280;9100;48.700;9.316;2023-01-28T02:53:59;98294.7;;;1.08;100
17950;BME280;9100;48.700;9.316;2023-01-28T02:54:58;98299.7;;;1.08;100
17950;BME280;9100;48.700;9.316;2023-01-28T02:55:37;98297.1;;;1.1;100
17950;BME280;9100;48.700;9.316;2023-01-28T02:55:59;98296.3;;;1.09;100
17950;BME280;9100;48.700;9.316;2023-01-28T02:56:59;98302.20000000001;;;1.1;100
17950;BME280;9100;48.700;9.316;2023-01-28T02:57:58;98299.5;;;1.11;100
17950;BME280;9100;48.700;9.316;2023-01-28T02:58:58;98296.1;;;1.12;100
17950;BME280;9100;48.700;9.316;2023-01-28T03:00:00;98306.2;;;1.12;100
17950;BME280;9100;48.700;9.316;2023-01-28T03:00:38;98297.79999999999;;;1.12;100
17950;BME280;9100;48.700;9.316;2023-01-28T03:00:59;98300.40000000001;;;1.12;100
17950;BME280;9100;48.700;9.316;2023-01-28T03:01:59;98297.7;;;1.13;100
17950;BME280;9100;48.700;9.316;2023-01-28T03:02:58;98300.2;;;1.13;100
17950;BME280;9100;48.700;9.316;2023-01-28T03:03:58;98301;;;1.15;100
17950;BME280;9100;48.700;9.316;2023-01-28T03:04:59;98301.9;;;1.13;100
17950;BME280;9100;48.700;9.316;2023-01-28T03:05:36;98307.8;;;1.13;100
17950;BME280;9100;48.700;9.316;2023-01-28T03:05:58;98306.2;;;1.12;100
17950;BME280;9100;48.700;9.316;2023-01-28T03:06:59;98309.40000000001;;;1.14;100
17950;BME280;9100;48.700;9.316;2023-01-28T03:07:57;98305.2;;;1.15;100
17950;BME280;9100;48.700;9.316;2023-01-28T03:08:57;98306;;;1.15;100
17950;BME280;9100;48.700;9.316;2023-01-28T03:09:57;98306.1;;;1.14;100
17950;BME280;9100;48.700;9.316;2023-01-28T03:10:35;98312;;;1.13;100
17950;BME280;9100;48.700;9.316;2023-01-28T03:10:57;98306.9;;;1.14;100
17950;BME280;9100;48.700;9.316;2023-01-28T03:11:58;98311;;;1.15;100
17950;BME280;9100;48.700;9.316;2023-01-28T03:12:57;98306.8;;;1.16;100
17950;BME280;9100;48.700;9.316;2023-01-28T03:13:58;98307.4;;;1.19;100
17950;BME280;9100;48.700;9.316;2023-01-28T03:14:58;98305;;;1.18;100
17950;BME280;9100;48.700;9.316;2023-01-28T03:15:36;98302.5;;;1.18;100
17950;BME280;9100;48.700;9.316;2023-01-28T03:15:57;98310.7;;;1.2;100
17950;BME280;9100;48.700;9.316;2023-01-28T03:16:58;98303.9;;;1.22;100
17950;BME280;9100;48.700;9.316;2023-01-28T03:17:57;98308;;;1.23;100
17950;BME280;9100;48.700;9.316;2023-01-28T03:18:57;98304.7;;;1.21;100
17950;BME280;9100;48.700;9.316;2023-01-28T03:19:57;98303;;;1.21;100
17950;BME280;9100;48.700;9.316;2023-01-28T03:20:36;98306.4;;;1.22;100
17950;BME280;9100;48.700;9.316;2023-01-28T03:20:59;98311.40000000001;;;1.22;100
17950;BME280;9100;48.700;9.316;2023-01-28T03:21:58;98303.7;;;1.23;100
17950;BME280;9100;48.700;9.316;2023-01-28T03:22:58;98310.5;;;1.23;100
17950;BME280;9100;48.700;9.316;2023-01-28T03:23:58;98307.9;;;1.24;100
17950;BME280;9100;48.700;9.316;2023-01-28T03:24:57;98307.1;;;1.24;100
17950;BME280;9100;48.700;9.316;2023-01-28T03:25:34;98307.9;;;1.24;100
17950;BME280;9100;48.700;9.316;2023-01-28T03:25:58;98304.5;;;1.24;100
17950;BME280;9100;48.700;9.316;2023-01-28T03:27:00;98304.5;;;1.24;100
17950;BME280;9100;48.700;9.316;2023-01-28T03:27:58;98308.90000000001;;;1.22;100
17950;BME280;9100;48.700;9.316;2023-01-28T03:28:58;98305.7;;;1.2;100
17950;BME280;9100;48.700;9.316;2023-01-28T03:29:57;98310.79999999999;;;1.18;100
17950;BME280;9100;48.700;9.316;2023-01-28T03:30:35;98305.9;;;1.17;100
17950;BME280;9100;48.700;9.316;2023-01-28T03:30:58;98308.4;;;1.17;100
17950;BME280;9100;48.700;9.316;2023-01-28T03:31:58;98305.8;;;1.18;100
17950;BME280;9100;48.700;9.316;2023-01-28T03:32:58;98307.5;;;1.18;100
17950;BME280;9100;48.700;9.316;2023-01-28T03:33:58;98301;;;1.15;100
17950;BME280;9100;48.700;9.316;2023-01-28T03:34:57;98303.4;;;1.17;100
17950;BME280;9100;48.700;9.316;2023-01-28T03:35:34;98307.6;;;1.16;100
17950;BME280;9100;48.700;9.316;2023-01-28T03:35:57;98304.2;;;1.16;100
17950;BME280;9100;48.700;9.316;2023-01-28T03:36:57;98307.6;;;1.16;100
17950;BME280;9100;48.700;9.316;2023-01-28T03:37:57;98303.4;;;1.17;100
17950;BME280;9100;48.700;9.316;2023-01-28T03:38:57;98301.5;;;1.19;100
17950;BME280;9100;48.700;9.316;2023-01-28T03:40:00;98308.2;;;1.2;100
17950;BME280;9100;48.700;9.316;2023-01-28T03:40:34;98301.59999999999;;;1.17;100
17950;BME280;9100;48.700;9.316;2023-01-28T03:40:58;98301.5;;;1.19;100
17950;BME280;9100;48.700;9.316;2023-01-28T03:41:57;98309;;;1.2;100
17950;BME280;9100;48.700;9.316;2023-01-28T03:42:57;98305.7;;;1.2;100
17950;BME280;9100;48.700;9.316;2023-01-28T03:43:57;98301.5;;;1.19;100
17950;BME280;9100;48.700;9.316;2023-01-28T03:44:57;98311.6;;;1.19;100
17950;BME280;9100;48.700;9.316;2023-01-28T03:45:34;98305;;;1.18;100
17950;BME280;9100;48.700;9.316;2023-01-28T03:45:57;98310.79999999999;;;1.18;100
17950;BME280;9100;48.700;9.316;2023-01-28T03:46:57;98305;;;1.18;100
17950;BME280;9100;48.700;9.316;2023-01-28T03:47:57;98308.2;;;1.2;100
17950;BME280;9100;48.700;9.316;2023-01-28T03:48:57;98312.40000000001;;;1.19;100
17950;BME280;9100;48.700;9.316;2023-01-28T03:49:57;98311.6;;;1.19;100
17950;BME280;9100;48.700;9.316;2023-01-28T03:50:34;98313.3;;;1.18;100
17950;BME280;9100;48.700;9.316;2023-01-28T03:50:57;98317.6;;;1.18;100
17950;BME280;9100;48.700;9.316;2023-01-28T03:51:57;98314.09999999999;;;1.19;100
17950;BME280;9100;48.700;9.316;2023-01-28T03:52:57;98216.09999999999;;;0.56;100
17950;BME280;9100;48.700;9.316;2023-01-28T03:53:57;98318.5;;;1.17;100
17950;BME280;9100;48.700;9.316;2023-01-28T03:54:57;98326.8;;;1.17;100
17950;BME280;9100;48.700;9.316;2023-01-28T03:55:34;98322.7;;;1.16;100
17950;BME280;9100;48.700;9.316;2023-01-28T03:55:57;98312.59999999999;;;1.16;100
17950;BME280;9100;48.700;9.316;2023-01-28T03:56:57;98318.5;;;1.17;100
17950;BME280;9100;48.700;9.316;2023-01-28T03:57:57;98317.6;;;1.18;100
17950;BME280;9100;48.700;9.316;2023-01-28T03:58:57;98318.5;;;1.17;100
17950;BME280;9100;48.700;9.316;2023-01-28T03:59:57;98311.8;;;1.16;100
17950;BME280;9100;48.700;9.316;2023-01-28T04:00:35;98322.6;;;1.18;100
17950;BME280;9100;48.700;9.316;2023-01-28T04:00:58;98315;;;1.18;100
17950;BME280;9100;48.700;9.316;2023-01-28T04:01:57;98315;;;1.18;100
17950;BME280;9100;48.700;9.316;2023-01-28T04:02:58;98315.9;;;1.18;100
17950;BME280;9100;48.700;9.316;2023-01-28T04:03:57;98316.7;;;1.19;100
17950;BME280;9100;48.700;9.316;2023-01-28T04:04:57;98320.1;;;1.18;100
17950;BME280;9100;48.700;9.316;2023-01-28T04:05:34;98315;;;1.18;100
17950;BME280;9100;48.700;9.316;2023-01-28T04:05:58;98314.9;;;1.19;100
17950;BME280;9100;48.700;9.316;2023-01-28T04:06:57;98308.2;;;1.2;100
17950;BME280;9100;48.700;9.316;2023-01-28T04:07:57;98314.8;;;1.21;100
17950;BME280;9100;48.700;9.316;2023-01-28T04:08:57;98313.2;;;1.2;100
17950;BME280;9100;48.700;9.316;2023-01-28T04:09:58;98315.7;;;1.2;100
17950;BME280;9100;48.700;9.316;2023-01-28T04:10:34;98314.09999999999;;;1.19;100
17950;BME280;9100;48.700;9.316;2023-01-28T04:10:57;98314.09999999999;;;1.19;100
17950;BME280;9100;48.700;9.316;2023-01-28T04:11:57;98318.2;;;1.2;100
17950;BME280;9100;48.700;9.316;2023-01-28T04:12:57;98312.40000000001;;;1.19;100
17950;BME280;9100;48.700;9.316;2023-01-28T04:13:57;98313.4;;;1.17;100
17950;BME280;9100;48.700;9.316;2023-01-28T04:14:58;98315;;;1.18;100
17950;BME280;9100;48.700;9.316;2023-01-28T04:15:34;98308.4;;;1.17;100
17950;BME280;9100;48.700;9.316;2023-01-28T04:15:58;98317.6;;;1.18;100
17950;BME280;9100;48.700;9.316;2023-01-28T04:16:58;98314;;;1.2;100
17950;BME280;9100;48.700;9.316;2023-01-28T04:17:57;98311.6;;;1.19;100
17950;BME280;9100;48.700;9.316;2023-01-28T04:18:57;98318.2;;;1.2;100
17950;BME280;9100;48.700;9.316;2023-01-28T04:19:57;98320.1;;;1.18;100
17950;BME280;9100;48.700;9.316;2023-01-28T04:20:34;98317.6;;;1.18;100
17950;BME280;9100;48.700;9.316;2023-01-28T04:20:58;98317.6;;;1.18;100
17950;BME280;9100;48.700;9.316;2023-01-28T04:21:57;98325.9;;;1.18;100
17950;BME280;9100;48.700;9.316;2023-01-28T04:22:57;98323.5;;;1.17;100
17950;BME280;9100;48.700;9.316;2023-01-28T04:23:57;98327.70000000001;;;1.16;100
17950;BME280;9100;48.700;9.316;2023-01-28T04:24:57;98319.4;;;1.16;100
17950;BME280;9100;48.700;9.316;2023-01-28T04:25:35;98328.5;;;1.17;100
17950;BME280;9100;48.700;9.316;2023-01-28T04:25:57;98331.1;;;1.17;100
17950;BME280;9100;48.700;9.316;2023-01-28T04:26:57;98326;;;1.17;100
17950;BME280;9100;48.700;9.316;2023-01-28T04:27:57;98329.4;;;1.16;100
17950;BME280;9100;48.700;9.316;2023-01-28T04:28:57;98332;;;1.16;100
17950;BME280;9100;48.700;9.316;2023-01-28T04:29:57;98329.4;;;1.16;100
17950;BME280;9100;48.700;9.316;2023-01-28T04:30:35;98326;;;1.17;100
17950;BME280;9100;48.700;9.316;2023-01-28T04:30:57;98333.6;;;1.17;100
17950;BME280;9100;48.700;9.316;2023-01-28T04:31:57;98338.59999999999;;;1.17;100
17950;BME280;9100;48.700;9.316;2023-01-28T04:32:57;98335;;;1.21;100
17950;BME280;9100;48.700;9.316;2023-01-28T04:33:57;98333.4;;;1.2;100
17950;BME280;9100;48.700;9.316;2023-01-28T04:34:57;98339.20000000001;;;1.2;100
17950;BME280;9100;48.700;9.316;2023-01-28T04:35:34;98337.59999999999;;;1.19;100
17950;BME280;9100;48.700;9.316;2023-01-28T04:35:57;98342.6;;;1.19;100
17950;BME280;9100;48.700;9.316;2023-01-28T04:36:57;98345.1;;;1.19;100
17950;BME280;9100;48.700;9.316;2023-01-28T04:37:57;98337.59999999999;;;1.19;100